sensor_id;sensor_type;location;lat;lon;timestamp;pressure;altitude;pressure_sealevel;temperature;humidity
63654;BME280;49809;47.418;19.080;2023-02-07T00:00:06;102771.03;;;-7.95;99.86
63654;BME280;49809;47.418;19.080;2023-02-07T00:03:45;102771.16;;;-7.98;99.75
63654;BME280;49809;47.418;19.080;2023-02-07T00:07:22;102779.66;;;-7.96;99.64
63654;BME280;49809;47.418;19.080;2023-02-07T00:10:45;102788.94;;;-7.93;99.64
63654;BME280;49809;47.418;19.080;2023-02-07T00:14:21;102801.94;;;-7.96;99.98
63654;BME280;49809;47.418;19.080;2023-02-07T00:17:57;102809.44;;;-7.92;100.00
63654;BME280;49809;47.418;19.080;2023-02-07T00:21:28;102816.25;;;-7.91;100.00
63654;BME280;49809;47.418;19.080;2023-02-07T00:25:06;102822.78;;;-8.02;100.00
63654;BME280;49809;47.418;19.080;2023-02-07T00:28:23;102819.25;;;-8.00;100.00
63654;BME280;49809;47.418;19.080;2023-02-07T00:31:57;102821.62;;;-7.95;100.00
63654;BME280;49809;47.418;19.080;2023-02-07T00:35:14;102819.66;;;-7.90;100.00
63654;BME280;49809;47.418;19.080;2023-02-07T00:38:32;102811.34;;;-7.95;100.00
63654;BME280;49809;47.418;19.080;2023-02-07T00:41:49;102808.12;;;-8.00;100.00
63654;BME280;49809;47.418;19.080;2023-02-07T00:45:28;102827.03;;;-8.01;100.00
63654;BME280;49809;47.418;19.080;2023-02-07T00:48:45;102812.22;;;-7.96;100.00
63654;BME280;49809;47.418;19.080;2023-02-07T00:52:19;102821.25;;;-8.06;99.90
63654;BME280;49809;47.418;19.080;2023-02-07T00:55:46;102825.72;;;-8.10;100.00
63654;BME280;49809;47.418;19.080;2023-02-07T00:59:11;102824.59;;;-8.04;100.00
63654;BME280;49809;47.418;19.080;2023-02-07T01:02:46;102818.47;;;-8.02;100.00
63654;BME280;49809;47.418;19.080;2023-02-07T01:06:21;102812.59;;;-8.04;100.00
63654;BME280;49809;47.418;19.080;2023-02-07T01:09:41;102818.75;;;-8.08;100.00
63654;BME280;49809;47.418;19.080;2023-02-07T01:13:17;102814.88;;;-8.16;100.00
63654;BME280;49809;47.418;19.080;2023-02-07T01:16:35;102818.28;;;-8.16;100.00
63654;BME280;49809;47.418;19.080;2023-02-07T01:20:08;102813.19;;;-8.17;100.00
63654;BME280;49809;47.418;19.080;2023-02-07T01:23:26;102814.44;;;-8.26;100.00
63654;BME280;49809;47.418;19.080;2023-02-07T01:26:59;102815.12;;;-8.22;100.00
63654;BME280;49809;47.418;19.080;2023-02-07T01:30:16;102807.94;;;-8.14;100.00
63654;BME280;49809;47.418;19.080;2023-02-07T01:33:35;102797.66;;;-8.14;100.00
63654;BME280;49809;47.418;19.080;2023-02-07T01:36:56;102797.44;;;-8.10;100.00
63654;BME280;49809;47.418;19.080;2023-02-07T01:40:35;102794.38;;;-8.18;100.00
63654;BME280;49809;47.418;19.080;2023-02-07T01:47:33;102795.19;;;-8.34;100.00
63654;BME280;49809;47.418;19.080;2023-02-07T01:50:53;102784.75;;;-8.31;100.00
63654;BME280;49809;47.418;19.080;2023-02-07T01:54:14;102785.59;;;-8.31;100.00
63654;BME280;49809;47.418;19.080;2023-02-07T01:57:32;102778.34;;;-8.42;100.00
63654;BME280;49809;47.418;19.080;2023-02-07T02:01:16;102777.41;;;-8.39;100.00
63654;BME280;49809;47.418;19.080;2023-02-07T02:04:37;102773.31;;;-8.43;100.00
63654;BME280;49809;47.418;19.080;2023-02-07T02:07:55;102760.94;;;-8.54;100.00
63654;BME280;49809;47.418;19.080;2023-02-07T02:34:26;102765.28;;;-8.56;100.00
63654;BME280;49809;47.418;19.080;2023-02-07T02:41:16;102764.59;;;-8.59;100.00
63654;BME280;49809;47.418;19.080;2023-02-07T02:44:58;102751.97;;;-8.64;100.00
63654;BME280;49809;47.418;19.080;2023-02-07T02:48:17;102754.69;;;-8.67;100.00
63654;BME280;49809;47.418;19.080;2023-02-07T02:51:35;102771.94;;;-8.70;100.00
63654;BME280;49809;47.418;19.080;2023-02-07T02:55:11;102771.44;;;-8.78;100.00
63654;BME280;49809;47.418;19.080;2023-02-07T02:59:06;102764.31;;;-8.72;100.00
63654;BME280;49809;47.418;19.080;2023-02-07T03:10:07;102753.94;;;-8.89;100.00
63654;BME280;49809;47.418;19.080;2023-02-07T03:17:30;102760.75;;;-8.88;100.00
63654;BME280;49809;47.418;19.080;2023-02-07T03:22:00;102778.28;;;-8.98;100.00
63654;BME280;49809;47.418;19.080;2023-02-07T03:24:54;102775.66;;;-8.96;100.00
63654;BME280;49809;47.418;19.080;2023-02-07T03:28:29;102779.50;;;-9.06;100.00
63654;BME280;49809;47.418;19.080;2023-02-07T03:31:54;102778.78;;;-9.10;100.00
63654;BME280;49809;47.418;19.080;2023-02-07T03:39:15;102776.28;;;-9.11;100.00
63654;BME280;49809;47.418;19.080;2023-02-07T03:42:40;102768.66;;;-9.13;100.00
63654;BME280;49809;47.418;19.080;2023-02-07T03:46:16;102769.63;;;-9.15;100.00
63654;BME280;49809;47.418;19.080;2023-02-07T03:49:43;102770.19;;;-9.09;100.00
63654;BME280;49809;47.418;19.080;2023-02-07T03:53:15;102769.88;;;-9.01;100.00
63654;BME280;49809;47.418;19.080;2023-02-07T03:56:49;102762.19;;;-9.01;100.00
63654;BME280;49809;47.418;19.080;2023-02-07T04:00:25;102755.37;;;-9.02;100.00
63654;BME280;49809;47.418;19.080;2023-02-07T04:03:59;102761.66;;;-9.09;100.00
63654;BME280;49809;47.418;19.080;2023-02-07T04:07:16;102757.34;;;-9.09;100.00
63654;BME280;49809;47.418;19.080;2023-02-07T04:11:01;102756.25;;;-9.03;100.00
63654;BME280;49809;47.418;19.080;2023-02-07T04:14:18;102751.47;;;-9.11;100.00
63654;BME280;49809;47.418;19.080;2023-02-07T04:17:41;102742.75;;;-9.07;100.00
63654;BME280;49809;47.418;19.080;2023-02-07T04:21:03;102744.81;;;-9.15;100.00
63654;BME280;49809;47.418;19.080;2023-02-07T04:24:37;102752.03;;;-9.04;100.00
63654;BME280;49809;47.418;19.080;2023-02-07T04:27:54;102755.81;;;-9.13;100.00
63654;BME280;49809;47.418;19.080;2023-02-07T04:31:13;102754.22;;;-9.15;100.00
63654;BME280;49809;47.418;19.080;2023-02-07T04:34:46;102747.03;;;-9.07;100.00
63654;BME280;49809;47.418;19.080;2023-02-07T04:38:03;102748.97;;;-9.12;100.00
63654;BME280;49809;47.418;19.080;2023-02-07T04:41:22;102743.81;;;-9.12;100.00
63654;BME280;49809;47.418;19.080;2023-02-07T04:44:41;102744.22;;;-9.01;100.00
63654;BME280;49809;47.418;19.080;2023-02-07T04:47:58;102746.66;;;-9.18;100.00
63654;BME280;49809;47.418;19.080;2023-02-07T04:51:18;102759.47;;;-9.18;100.00
63654;BME280;49809;47.418;19.080;2023-02-07T04:54:38;102754.09;;;-9.12;100.00
63654;BME280;49809;47.418;19.080;2023-02-07T04:57:57;102767.06;;;-9.15;100.00
63654;BME280;49809;47.418;19.080;2023-02-07T05:01:28;102769.53;;;-9.14;100.00
63654;BME280;49809;47.418;19.080;2023-02-07T05:05:03;102769.34;;;-9.09;100.00
63654;BME280;49809;47.418;19.080;2023-02-07T05:08:23;102775.91;;;-9.02;100.00
63654;BME280;49809;47.418;19.080;2023-02-07T05:11:40;102774.28;;;-9.05;100.00
63654;BME280;49809;47.418;19.080;2023-02-07T05:14:57;102786.59;;;-8.93;100.00
63654;BME280;49809;47.418;19.080;2023-02-07T05:18:17;102790.91;;;-8.93;100.00
63654;BME280;49809;47.418;19.080;2023-02-07T05:21:34;102803.72;;;-8.93;100.00
63654;BME280;49809;47.418;19.080;2023-02-07T05:24:52;102809.66;;;-8.91;100.00
63654;BME280;49809;47.418;19.080;2023-02-07T05:28:10;102819.78;;;-8.88;100.00
63654;BME280;49809;47.418;19.080;2023-02-07T05:31:44;102816.56;;;-8.93;100.00
63654;BME280;49809;47.418;19.080;2023-02-07T05:35:23;102821.25;;;-9.03;100.00
63654;BME280;49809;47.418;19.080;2023-02-07T05:38:56;102816.81;;;-8.99;100.00
63654;BME280;49809;47.418;19.080;2023-02-07T05:42:17;102823.16;;;-9.08;100.00
63654;BME280;49809;47.418;19.080;2023-02-07T05:45:40;102819.31;;;-8.98;100.00
63654;BME280;49809;47.418;19.080;2023-02-07T05:49:00;102812.31;;;-9.14;100.00
63654;BME280;49809;47.418;19.080;2023-02-07T05:52:33;102818.94;;;-9.09;100.00
63654;BME280;49809;47.418;19.080;2023-02-07T05:56:06;102816.63;;;-9.15;100.00
63654;BME280;49809;47.418;19.080;2023-02-07T05:59:38;102820.97;;;-9.17;100.00
63654;BME280;49809;47.418;19.080;2023-02-07T06:02:56;102819.31;;;-9.18;100.00
63654;BME280;49809;47.418;19.080;2023-02-07T06:06:14;102816.78;;;-9.19;100.00
63654;BME280;49809;47.418;19.080;2023-02-07T06:09:47;102822.00;;;-9.21;100.00
63654;BME280;49809;47.418;19.080;2023-02-07T06:13:04;102814.13;;;-9.16;100.00
63654;BME280;49809;47.418;19.080;2023-02-07T06:16:21;102815.66;;;-9.12;100.00
63654;BME280;49809;47.418;19.080;2023-02-07T06:19:38;102823.22;;;-9.09;100.00
63654;BME280;49809;47.418;19.080;2023-02-07T06:22:55;102832.72;;;-9.11;100.00
63654;BME280;49809;47.418;19.080;2023-02-07T06:26:16;102827.59;;;-9.11;100.00
63654;BME280;49809;47.418;19.080;2023-02-07T06:29:45;102823.94;;;-9.06;100.00
63654;BME280;49809;47.418;19.080;2023-02-07T06:33:19;102822.41;;;-8.90;100.00
63654;BME280;49809;47.418;19.080;2023-02-07T06:36:53;102832.06;;;-8.76;100.00
63654;BME280;49809;47.418;19.080;2023-02-07T06:40:28;102830.19;;;-8.91;100.00
63654;BME280;49809;47.418;19.080;2023-02-07T06:44:03;102821.56;;;-8.90;100.00
63654;BME280;49809;47.418;19.080;2023-02-07T06:47:36;102816.31;;;-8.87;100.00
63654;BME280;49809;47.418;19.080;2023-02-07T06:50:53;102812.56;;;-8.80;100.00
63654;BME280;49809;47.418;19.080;2023-02-07T06:54:26;102811.91;;;-8.65;100.00
63654;BME280;49809;47.418;19.080;2023-02-07T06:57:52;102805.31;;;-8.31;100.00
63654;BME280;49809;47.418;19.080;2023-02-07T07:01:28;102801.06;;;-8.32;100.00
63654;BME280;49809;47.418;19.080;2023-02-07T07:05:15;102806.31;;;-8.17;100.00
63654;BME280;49809;47.418;19.080;2023-02-07T07:08:42;102802.38;;;-8.05;100.00
63654;BME280;49809;47.418;19.080;2023-02-07T07:12:12;102795.13;;;-7.97;100.00
63654;BME280;49809;47.418;19.080;2023-02-07T07:15:59;102801.25;;;-7.81;100.00
63654;BME280;49809;47.418;19.080;2023-02-07T07:19:31;102802.16;;;-7.65;100.00
63654;BME280;49809;47.418;19.080;2023-02-07T07:23:10;102794.50;;;-7.48;100.00
63654;BME280;49809;47.418;19.080;2023-02-07T07:26:48;102802.22;;;-7.30;100.00
63654;BME280;49809;47.418;19.080;2023-02-07T07:30:34;102799.87;;;-7.00;100.00
63654;BME280;49809;47.418;19.080;2023-02-07T07:34:16;102795.25;;;-6.94;100.00
63654;BME280;49809;47.418;19.080;2023-02-07T07:37:55;102795.50;;;-6.66;98.60
63654;BME280;49809;47.418;19.080;2023-02-07T07:41:16;102798.38;;;-6.54;98.42
63654;BME280;49809;47.418;19.080;2023-02-07T07:45:08;102801.53;;;-6.49;98.54
63654;BME280;49809;47.418;19.080;2023-02-07T07:48:59;102793.69;;;-6.31;97.42
63654;BME280;49809;47.418;19.080;2023-02-07T07:52:37;102797.09;;;-6.15;96.61
63654;BME280;49809;47.418;19.080;2023-02-07T07:56:20;102792.13;;;-6.02;96.18
63654;BME280;49809;47.418;19.080;2023-02-07T07:59:37;102793.09;;;-5.89;95.12
63654;BME280;49809;47.418;19.080;2023-02-07T08:03:05;102796.63;;;-5.76;94.72
63654;BME280;49809;47.418;19.080;2023-02-07T08:06:39;102790.28;;;-5.54;94.19
63654;BME280;49809;47.418;19.080;2023-02-07T08:10:02;102792.50;;;-5.33;91.80
63654;BME280;49809;47.418;19.080;2023-02-07T08:13:37;102796.28;;;-5.24;91.84
63654;BME280;49809;47.418;19.080;2023-02-07T08:17:11;102793.00;;;-5.12;92.42
63654;BME280;49809;47.418;19.080;2023-02-07T08:20:51;102797.28;;;-4.83;92.25
63654;BME280;49809;47.418;19.080;2023-02-07T08:25:00;102782.28;;;-4.76;90.46
63654;BME280;49809;47.418;19.080;2023-02-07T08:28:18;102791.03;;;-4.50;90.17
63654;BME280;49809;47.418;19.080;2023-02-07T08:31:51;102795.09;;;-4.46;90.14
63654;BME280;49809;47.418;19.080;2023-02-07T08:35:23;102800.44;;;-4.49;88.86
63654;BME280;49809;47.418;19.080;2023-02-07T08:38:42;102798.97;;;-4.53;87.04
63654;BME280;49809;47.418;19.080;2023-02-07T08:42:03;102802.31;;;-4.37;88.75
63654;BME280;49809;47.418;19.080;2023-02-07T08:46:06;102799.50;;;-4.34;86.69
63654;BME280;49809;47.418;19.080;2023-02-07T08:49:36;102804.88;;;-4.23;86.84
63654;BME280;49809;47.418;19.080;2023-02-07T08:53:17;102812.38;;;-3.91;85.56
63654;BME280;49809;47.418;19.080;2023-02-07T08:56:56;102804.97;;;-3.83;85.87
63654;BME280;49809;47.418;19.080;2023-02-07T09:00:38;102813.13;;;-3.63;86.87
63654;BME280;49809;47.418;19.080;2023-02-07T09:04:18;102809.47;;;-3.46;83.17
63654;BME280;49809;47.418;19.080;2023-02-07T09:07:32;102797.94;;;-3.55;84.12
63654;BME280;49809;47.418;19.080;2023-02-07T09:11:00;102797.28;;;-3.44;82.98
63654;BME280;49809;47.418;19.080;2023-02-07T09:14:40;102800.19;;;-3.36;81.14
63654;BME280;49809;47.418;19.080;2023-02-07T09:22:21;102796.09;;;-3.00;81.54
63654;BME280;49809;47.418;19.080;2023-02-07T09:26:15;102799.00;;;-2.92;79.34
63654;BME280;49809;47.418;19.080;2023-02-07T09:29:54;102796.72;;;-2.84;79.66
63654;BME280;49809;47.418;19.080;2023-02-07T09:33:21;102797.78;;;-2.87;78.56
63654;BME280;49809;47.418;19.080;2023-02-07T09:36:42;102800.88;;;-2.69;79.78
63654;BME280;49809;47.418;19.080;2023-02-07T09:40:04;102799.72;;;-2.40;77.60
63654;BME280;49809;47.418;19.080;2023-02-07T09:47:32;102806.84;;;-2.31;76.98
63654;BME280;49809;47.418;19.080;2023-02-07T09:51:04;102809.19;;;-2.02;74.81
63654;BME280;49809;47.418;19.080;2023-02-07T09:54:41;102797.78;;;-2.00;75.14
63654;BME280;49809;47.418;19.080;2023-02-07T09:58:20;102790.94;;;-1.77;74.41
63654;BME280;49809;47.418;19.080;2023-02-07T10:01:40;102784.19;;;-1.56;73.03
63654;BME280;49809;47.418;19.080;2023-02-07T10:05:28;102777.50;;;-1.47;70.64
63654;BME280;49809;47.418;19.080;2023-02-07T10:12:59;102773.09;;;-1.23;68.73
63654;BME280;49809;47.418;19.080;2023-02-07T10:16:49;102773.56;;;-1.18;69.09
63654;BME280;49809;47.418;19.080;2023-02-07T10:20:31;102768.91;;;-1.02;67.27
63654;BME280;49809;47.418;19.080;2023-02-07T10:54:58;102743.72;;;-0.90;61.73
63654;BME280;49809;47.418;19.080;2023-02-07T11:02:34;102737.47;;;-0.76;62.15
63654;BME280;49809;47.418;19.080;2023-02-07T11:06:00;102739.00;;;-0.63;60.15
63654;BME280;49809;47.418;19.080;2023-02-07T11:09:39;102737.34;;;-0.86;60.81
63654;BME280;49809;47.418;19.080;2023-02-07T11:13:00;102739.81;;;-0.40;58.78
63654;BME280;49809;47.418;19.080;2023-02-07T11:16:33;102737.59;;;-0.45;60.54
63654;BME280;49809;47.418;19.080;2023-02-07T11:20:29;102734.50;;;-0.72;58.93
63654;BME280;49809;47.418;19.080;2023-02-07T11:24:24;102726.34;;;0.09;58.39
63654;BME280;49809;47.418;19.080;2023-02-07T11:32:14;102706.69;;;1.98;53.66
63654;BME280;49809;47.418;19.080;2023-02-07T11:35:34;102722.50;;;2.06;53.01
63654;BME280;49809;47.418;19.080;2023-02-07T11:39:16;102718.84;;;2.94;49.99
63654;BME280;49809;47.418;19.080;2023-02-07T11:43:18;102708.69;;;3.18;50.97
63654;BME280;49809;47.418;19.080;2023-02-07T11:46:49;102700.69;;;1.58;53.15
63654;BME280;49809;47.418;19.080;2023-02-07T11:50:31;102702.31;;;2.93;51.39
63654;BME280;49809;47.418;19.080;2023-02-07T11:54:04;102685.97;;;4.52;47.55
63654;BME280;49809;47.418;19.080;2023-02-07T11:57:40;102686.50;;;5.15;44.88
63654;BME280;49809;47.418;19.080;2023-02-07T12:01:29;102683.19;;;4.79;44.67
63654;BME280;49809;47.418;19.080;2023-02-07T12:05:19;102682.59;;;3.54;47.50
63654;BME280;49809;47.418;19.080;2023-02-07T12:08:54;102677.13;;;2.27;48.97
63654;BME280;49809;47.418;19.080;2023-02-07T12:12:55;102677.22;;;3.00;48.79
63654;BME280;49809;47.418;19.080;2023-02-07T12:20:56;102670.50;;;2.51;49.18
63654;BME280;49809;47.418;19.080;2023-02-07T12:24:30;102669.19;;;1.30;51.12
63654;BME280;49809;47.418;19.080;2023-02-07T12:27:58;102673.28;;;1.33;52.43
63654;BME280;49809;47.418;19.080;2023-02-07T12:36:02;102668.62;;;1.37;52.49
63654;BME280;49809;47.418;19.080;2023-02-07T12:48:10;102661.53;;;1.48;52.27
63654;BME280;49809;47.418;19.080;2023-02-07T13:03:23;102650.03;;;1.89;51.77
63654;BME280;49809;47.418;19.080;2023-02-07T13:13:22;102651.25;;;2.04;50.97
63654;BME280;49809;47.418;19.080;2023-02-07T13:24:18;102639.28;;;1.04;53.16
63654;BME280;49809;47.418;19.080;2023-02-07T13:27:54;102646.66;;;1.29;52.31
63654;BME280;49809;47.418;19.080;2023-02-07T13:31:34;102650.72;;;1.82;50.18
63654;BME280;49809;47.418;19.080;2023-02-07T13:35:09;102647.81;;;2.13;48.99
63654;BME280;49809;47.418;19.080;2023-02-07T14:03:20;102643.00;;;1.99;47.59
63654;BME280;49809;47.418;19.080;2023-02-07T14:06:29;102641.53;;;1.87;47.49
63654;BME280;49809;47.418;19.080;2023-02-07T14:09:44;102632.97;;;1.85;47.50
63654;BME280;49809;47.418;19.080;2023-02-07T14:12:50;102634.34;;;1.70;48.03
63654;BME280;49809;47.418;19.080;2023-02-07T14:16:48;102631.59;;;1.52;48.08
63654;BME280;49809;47.418;19.080;2023-02-07T14:27:35;102640.53;;;2.27;47.43
63654;BME280;49809;47.418;19.080;2023-02-07T14:31:07;102648.22;;;2.28;46.89
63654;BME280;49809;47.418;19.080;2023-02-07T14:38:34;102654.31;;;1.21;49.31
63654;BME280;49809;47.418;19.080;2023-02-07T14:41:41;102652.84;;;0.98;49.97
63654;BME280;49809;47.418;19.080;2023-02-07T14:44:46;102656.91;;;0.81;50.82
63654;BME280;49809;47.418;19.080;2023-02-07T14:52:23;102662.19;;;0.50;51.78
63654;BME280;49809;47.418;19.080;2023-02-07T15:00:04;102650.19;;;0.17;53.37
63654;BME280;49809;47.418;19.080;2023-02-07T15:03:34;102657.37;;;0.24;53.04
63654;BME280;49809;47.418;19.080;2023-02-07T15:06:42;102655.88;;;-0.10;53.88
63654;BME280;49809;47.418;19.080;2023-02-07T15:09:50;102654.25;;;-0.22;55.08
63654;BME280;49809;47.418;19.080;2023-02-07T15:13:24;102660.53;;;-0.25;54.93
63654;BME280;49809;47.418;19.080;2023-02-07T15:16:33;102674.06;;;-0.42;56.17
63654;BME280;49809;47.418;19.080;2023-02-07T15:20:28;102671.09;;;-0.37;55.66
63654;BME280;49809;47.418;19.080;2023-02-07T15:24:02;102675.25;;;-0.35;55.16
63654;BME280;49809;47.418;19.080;2023-02-07T15:27:29;102673.75;;;-0.49;55.97
63654;BME280;49809;47.418;19.080;2023-02-07T15:31:01;102676.81;;;-0.66;56.69
63654;BME280;49809;47.418;19.080;2023-02-07T15:34:47;102675.88;;;-0.76;57.59
63654;BME280;49809;47.418;19.080;2023-02-07T15:38:35;102681.56;;;-0.93;58.83
63654;BME280;49809;47.418;19.080;2023-02-07T15:42:17;102682.50;;;-0.94;58.83
63654;BME280;49809;47.418;19.080;2023-02-07T15:46:05;102682.28;;;-1.02;59.24
63654;BME280;49809;47.418;19.080;2023-02-07T15:50:31;102692.53;;;-1.23;60.51
63654;BME280;49809;47.418;19.080;2023-02-07T15:54:15;102693.50;;;-1.59;62.64
63654;BME280;49809;47.418;19.080;2023-02-07T16:06:13;102701.31;;;-2.54;68.40
63654;BME280;49809;47.418;19.080;2023-02-07T16:09:42;102704.44;;;-2.74;69.50
63654;BME280;49809;47.418;19.080;2023-02-07T16:13:21;102709.97;;;-2.91;70.99
63654;BME280;49809;47.418;19.080;2023-02-07T16:25:21;102705.28;;;-3.49;74.28
63654;BME280;49809;47.418;19.080;2023-02-07T16:37:00;102708.25;;;-3.95;77.89
63654;BME280;49809;47.418;19.080;2023-02-07T16:40:25;102709.78;;;-4.05;78.72
63654;BME280;49809;47.418;19.080;2023-02-07T16:44:24;102714.91;;;-4.18;79.51
63654;BME280;49809;47.418;19.080;2023-02-07T16:52:15;102727.50;;;-4.40;82.13
63654;BME280;49809;47.418;19.080;2023-02-07T16:56:26;102721.91;;;-4.47;82.65
63654;BME280;49809;47.418;19.080;2023-02-07T17:00:19;102711.66;;;-4.07;85.05
63654;BME280;49809;47.418;19.080;2023-02-07T17:16:25;102692.66;;;-3.29;80.42
63654;BME280;49809;47.418;19.080;2023-02-07T17:19:53;102708.63;;;-3.35;81.27
63654;BME280;49809;47.418;19.080;2023-02-07T17:23:20;102713.34;;;-3.54;81.85
63654;BME280;49809;47.418;19.080;2023-02-07T17:27:09;102716.03;;;-3.43;81.49
63654;BME280;49809;47.418;19.080;2023-02-07T17:30:52;102720.97;;;-3.65;82.04
63654;BME280;49809;47.418;19.080;2023-02-07T17:33:59;102713.53;;;-3.97;83.43
63654;BME280;49809;47.418;19.080;2023-02-07T17:37:05;102714.84;;;-4.04;84.14
63654;BME280;49809;47.418;19.080;2023-02-07T17:40:38;102722.28;;;-4.12;84.48
63654;BME280;49809;47.418;19.080;2023-02-07T17:44:25;102723.88;;;-4.23;85.26
63654;BME280;49809;47.418;19.080;2023-02-07T17:47:51;102726.28;;;-4.34;85.42
63654;BME280;49809;47.418;19.080;2023-02-07T17:51:26;102731.19;;;-4.44;86.01
63654;BME280;49809;47.418;19.080;2023-02-07T17:54:34;102738.13;;;-4.59;86.20
63654;BME280;49809;47.418;19.080;2023-02-07T17:58:13;102738.06;;;-4.71;86.98
63654;BME280;49809;47.418;19.080;2023-02-07T18:01:51;102733.81;;;-4.87;87.67
63654;BME280;49809;47.418;19.080;2023-02-07T18:05:24;102737.31;;;-5.02;87.95
63654;BME280;49809;47.418;19.080;2023-02-07T18:08:29;102731.94;;;-5.13;88.51
63654;BME280;49809;47.418;19.080;2023-02-07T18:11:46;102740.44;;;-5.11;90.13
63654;BME280;49809;47.418;19.080;2023-02-07T18:15:05;102752.28;;;-5.22;90.25
63654;BME280;49809;47.418;19.080;2023-02-07T18:18:52;102756.66;;;-5.23;90.64
63654;BME280;49809;47.418;19.080;2023-02-07T18:22:35;102764.81;;;-5.31;91.18
63654;BME280;49809;47.418;19.080;2023-02-07T18:26:24;102759.47;;;-5.28;91.41
63654;BME280;49809;47.418;19.080;2023-02-07T18:33:44;102746.22;;;-5.51;91.99
63654;BME280;49809;47.418;19.080;2023-02-07T18:44:41;102759.31;;;-5.54;93.85
63654;BME280;49809;47.418;19.080;2023-02-07T18:48:19;102757.66;;;-5.55;93.75
63654;BME280;49809;47.418;19.080;2023-02-07T18:55:45;102760.19;;;-5.70;94.04
63654;BME280;49809;47.418;19.080;2023-02-07T18:59:22;102752.13;;;-5.79;94.51
63654;BME280;49809;47.418;19.080;2023-02-07T19:02:45;102761.47;;;-5.77;94.62
63654;BME280;49809;47.418;19.080;2023-02-07T19:06:26;102772.75;;;-5.79;95.01
63654;BME280;49809;47.418;19.080;2023-02-07T19:10:39;102766.03;;;-5.82;95.42
63654;BME280;49809;47.418;19.080;2023-02-07T19:21:38;102767.31;;;-6.04;96.13
63654;BME280;49809;47.418;19.080;2023-02-07T19:25:32;102770.00;;;-6.06;96.90
63654;BME280;49809;47.418;19.080;2023-02-07T19:29:18;102760.41;;;-6.04;97.24
63654;BME280;49809;47.418;19.080;2023-02-07T19:33:06;102754.94;;;-5.98;97.72
63654;BME280;49809;47.418;19.080;2023-02-07T19:37:05;102757.31;;;-5.95;98.19
63654;BME280;49809;47.418;19.080;2023-02-07T19:41:11;102761.31;;;-6.05;98.17
63654;BME280;49809;47.418;19.080;2023-02-07T19:45:01;102767.25;;;-6.03;98.17
63654;BME280;49809;47.418;19.080;2023-02-07T19:49:17;102763.09;;;-6.05;98.01
63654;BME280;49809;47.418;19.080;2023-02-07T20:57:05;102808.81;;;-6.57;100.00
63654;BME280;49809;47.418;19.080;2023-02-07T21:08:13;102821.56;;;-6.72;100.00
63654;BME280;49809;47.418;19.080;2023-02-07T21:11:16;102816.41;;;-6.72;100.00
63654;BME280;49809;47.418;19.080;2023-02-07T21:14:28;102812.66;;;-6.82;100.00
63654;BME280;49809;47.418;19.080;2023-02-07T21:17:32;102813.88;;;-6.89;100.00
63654;BME280;49809;47.418;19.080;2023-02-07T21:20:38;102816.37;;;-6.87;100.00
63654;BME280;49809;47.418;19.080;2023-02-07T21:23:42;102826.69;;;-6.87;100.00
63654;BME280;49809;47.418;19.080;2023-02-07T21:26:47;102821.12;;;-6.97;100.00
63654;BME280;49809;47.418;19.080;2023-02-07T21:29:51;102831.22;;;-6.92;100.00
63654;BME280;49809;47.418;19.080;2023-02-07T21:32:54;102828.28;;;-7.02;100.00
63654;BME280;49809;47.418;19.080;2023-02-07T21:36:04;102826.75;;;-6.89;100.00
63654;BME280;49809;47.418;19.080;2023-02-07T21:39:09;102831.53;;;-6.98;100.00
63654;BME280;49809;47.418;19.080;2023-02-07T21:42:15;102836.50;;;-6.95;100.00
63654;BME280;49809;47.418;19.080;2023-02-07T21:45:18;102832.28;;;-6.96;100.00
63654;BME280;49809;47.418;19.080;2023-02-07T21:48:21;102830.31;;;-6.91;100.00
63654;BME280;49809;47.418;19.080;2023-02-07T21:51:27;102831.44;;;-6.97;100.00
63654;BME280;49809;47.418;19.080;2023-02-07T21:54:30;102833.44;;;-7.02;100.00
63654;BME280;49809;47.418;19.080;2023-02-07T21:57:40;102834.78;;;-6.95;100.00
63654;BME280;49809;47.418;19.080;2023-02-07T22:00:43;102827.69;;;-7.07;100.00
63654;BME280;49809;47.418;19.080;2023-02-07T22:03:49;102827.81;;;-7.10;100.00
63654;BME280;49809;47.418;19.080;2023-02-07T22:06:58;102832.66;;;-7.04;100.00
63654;BME280;49809;47.418;19.080;2023-02-07T22:10:01;102831.75;;;-7.03;100.00
63654;BME280;49809;47.418;19.080;2023-02-07T22:13:06;102838.03;;;-7.09;100.00
63654;BME280;49809;47.418;19.080;2023-02-07T22:16:12;102836.53;;;-7.13;100.00
63654;BME280;49809;47.418;19.080;2023-02-07T22:19:15;102829.47;;;-7.09;100.00
63654;BME280;49809;47.418;19.080;2023-02-07T22:22:19;102830.84;;;-7.02;100.00
63654;BME280;49809;47.418;19.080;2023-02-07T22:25:21;102828.19;;;-7.00;100.00
63654;BME280;49809;47.418;19.080;2023-02-07T22:28:27;102831.06;;;-7.07;100.00
63654;BME280;49809;47.418;19.080;2023-02-07T22:31:32;102830.09;;;-7.04;100.00
63654;BME280;49809;47.418;19.080;2023-02-07T22:34:36;102834.78;;;-7.12;100.00
63654;BME280;49809;47.418;19.080;2023-02-07T22:37:41;102824.62;;;-7.15;100.00
63654;BME280;49809;47.418;19.080;2023-02-07T22:40:47;102826.06;;;-7.10;100.00
63654;BME280;49809;47.418;19.080;2023-02-07T22:43:52;102830.84;;;-7.19;100.00
63654;BME280;49809;47.418;19.080;2023-02-07T22:46:55;102833.19;;;-7.15;100.00
63654;BME280;49809;47.418;19.080;2023-02-07T22:49:58;102838.78;;;-7.07;100.00
63654;BME280;49809;47.418;19.080;2023-02-07T22:53:06;102824.62;;;-7.15;100.00
63654;BME280;49809;47.418;19.080;2023-02-07T22:56:08;102827.19;;;-7.15;100.00
63654;BME280;49809;47.418;19.080;2023-02-07T22:59:12;102833.19;;;-7.15;100.00
63654;BME280;49809;47.418;19.080;2023-02-07T23:02:15;102828.12;;;-6.99;100.00
63654;BME280;49809;47.418;19.080;2023-02-07T23:05:18;102824.16;;;-7.06;100.00
63654;BME280;49809;47.418;19.080;2023-02-07T23:08:21;102820.25;;;-7.13;100.00